Time;durP1;ratioP1;P1;durP2;ratioP2;P2;SDS_P1;SDS_P2;PMS_P1;PMS_P2;Temp;Humidity;BMP_temperature;BMP_pressure;BME280_temperature;BME280_humidity;BME280_pressure;Samples;Min_cycle;Max_cycle;Signal;HPM_P1;HPM_P2
2022/01/20 00:01:45;;;;;;;23.77;3.47;;;4.20;99.90;;;;;;5018738;28;20087;-75
2022/01/20 00:04:27;;;;;;;30.55;3.80;;;4.30;99.90;;;;;;5018799;28;20084;-75
2022/01/20 00:09:45;;;;;;;26.45;3.55;;;4.30;99.90;;;;;;5035314;28;20091;-75
2022/01/20 00:23:12;;;;;;;16.35;2.42;;;4.30;99.90;;;;;;5038826;28;20053;-75
2022/01/20 00:23:15;;;;;;;13.02;2.28;;;4.30;99.90;;;;;;5038706;28;20096;-75
2022/01/20 00:25:44;;;;;;;20.23;2.55;;;4.30;99.90;;;;;;5037700;28;20501;-75
2022/01/20 00:26:18;;;;;;;12.25;2.00;;;4.30;99.90;;;;;;5038110;28;20552;-77
2022/01/20 00:28:48;;;;;;;13.82;2.00;;;4.30;99.90;;;;;;5038112;28;20051;-76
2022/01/20 00:31:32;;;;;;;16.63;2.13;;;4.30;99.90;;;;;;5038966;28;20557;-76
2022/01/20 00:39:26;;;;;;;14.20;1.75;;;4.20;99.90;;;;;;5038740;28;20055;-75
2022/01/20 00:41:52;;;;;;;15.88;1.88;;;4.20;99.90;;;;;;5038915;28;20107;-75
2022/01/20 00:44:18;;;;;;;16.60;2.30;;;4.20;99.90;;;;;;5038492;28;20494;-75
2022/01/20 00:46:46;;;;;;;11.18;1.58;;;4.20;99.90;;;;;;5034902;28;20072;-75
2022/01/20 00:49:12;;;;;;;14.48;2.33;;;4.30;99.90;;;;;;5005032;28;20034;-75
2022/01/20 00:51:38;;;;;;;15.35;2.05;;;4.30;99.90;;;;;;5021482;28;20051;-75
2022/01/20 00:54:03;;;;;;;9.40;1.70;;;4.30;99.90;;;;;;5022229;28;20045;-76
2022/01/20 00:56:29;;;;;;;16.02;2.33;;;4.30;99.90;;;;;;5038499;28;20037;-75
2022/01/20 00:58:54;;;;;;;16.05;2.30;;;4.40;99.90;;;;;;5022252;28;20132;-75
2022/01/20 01:01:20;;;;;;;17.70;2.20;;;4.40;99.90;;;;;;5038355;28;20041;-77
2022/01/20 01:03:46;;;;;;;17.42;2.00;;;4.40;99.90;;;;;;5027778;28;20056;-74
2022/01/20 01:08:55;;;;;;;13.15;2.30;;;4.30;99.90;;;;;;5058619;28;20371;-74
2022/01/20 01:11:23;;;;;;;13.52;2.03;;;4.30;99.90;;;;;;5057907;28;20493;-75
2022/01/20 01:13:50;;;;;;;14.98;2.10;;;4.30;99.90;;;;;;5041384;28;20044;-74
2022/01/20 01:16:19;;;;;;;17.58;2.47;;;4.20;99.90;;;;;;5040775;28;20501;-77
2022/01/20 01:21:42;;;;;;;19.67;2.92;;;4.20;99.90;;;;;;5057842;28;20051;-75
2022/01/20 01:24:08;;;;;;;18.33;2.45;;;4.20;99.90;;;;;;5057106;28;20045;-75
2022/01/20 01:26:34;;;;;;;16.20;2.08;;;4.10;99.90;;;;;;5057247;28;20053;-75
2022/01/20 01:29:00;;;;;;;10.88;1.58;;;4.10;99.90;;;;;;5057313;28;20043;-75
2022/01/20 01:31:36;;;;;;;21.98;2.28;;;4.10;99.90;;;;;;5041194;28;20054;-75
2022/01/20 01:34:12;;;;;;;16.10;2.60;;;4.00;99.90;;;;;;5057966;28;20128;-74
2022/01/20 01:39:12;;;;;;;13.55;2.05;;;4.00;99.90;;;;;;5057563;28;20052;-76
2022/01/20 01:41:38;;;;;;;15.88;2.67;;;4.00;99.90;;;;;;5057141;28;20044;-75
2022/01/20 01:44:08;;;;;;;19.90;2.47;;;4.00;99.90;;;;;;5057620;28;20036;-74
2022/01/20 01:46:34;;;;;;;16.92;1.90;;;4.10;99.90;;;;;;5057486;28;20471;-74
2022/01/20 01:49:00;;;;;;;16.13;1.95;;;4.10;99.90;;;;;;5057449;28;20071;-74
2022/01/20 01:51:26;;;;;;;17.77;2.08;;;4.10;99.90;;;;;;5057352;28;20079;-75
2022/01/20 01:53:52;;;;;;;13.82;1.70;;;4.10;99.90;;;;;;5057471;28;20059;-75
2022/01/20 01:56:18;;;;;;;19.10;2.13;;;4.20;99.90;;;;;;5056930;28;20051;-74
2022/01/20 01:58:44;;;;;;;16.45;2.22;;;4.20;99.90;;;;;;5057063;28;20041;-76
2022/01/20 02:01:10;;;;;;;17.60;1.77;;;4.30;99.90;;;;;;5057096;28;20040;-75
2022/01/20 02:03:44;;;;;;;13.02;1.90;;;4.30;99.90;;;;;;5052475;28;20064;-74
2022/01/20 02:19:39;;;;;;;12.88;1.30;;;4.30;99.90;;;;;;5036618;28;20470;-74
2022/01/20 02:22:05;;;;;;;13.80;1.48;;;4.20;99.90;;;;;;5020499;28;20045;-75
2022/01/20 02:24:31;;;;;;;13.38;1.60;;;4.30;99.90;;;;;;5036655;28;20037;-75
2022/01/20 02:26:57;;;;;;;9.43;1.30;;;4.20;99.90;;;;;;5036985;28;20044;-74
2022/01/20 02:29:23;;;;;;;11.75;1.20;;;4.10;99.90;;;;;;5035934;28;20041;-75
2022/01/20 02:31:54;;;;;;;8.63;1.73;;;4.10;99.90;;;;;;5019645;28;20094;-75
2022/01/20 02:34:22;;;;;;;12.23;1.50;;;4.10;99.90;;;;;;5037237;28;20102;-74
2022/01/20 02:36:48;;;;;;;8.07;1.23;;;4.10;99.90;;;;;;5035619;28;20036;-75
2022/01/20 02:44:53;;;;;;;7.28;1.50;;;4.10;99.90;;;;;;5036899;28;20128;-75
2022/01/20 02:47:23;;;;;;;11.48;1.38;;;4.10;99.90;;;;;;5036764;28;20053;-73
2022/01/20 02:49:50;;;;;;;11.88;1.45;;;4.10;99.90;;;;;;5036504;28;20110;-76
2022/01/20 02:52:15;;;;;;;8.15;1.40;;;4.10;99.90;;;;;;5019812;28;20048;-74
2022/01/20 02:54:41;;;;;;;8.10;1.27;;;4.10;99.90;;;;;;5035709;28;20055;-73
2022/01/20 02:57:08;;;;;;;11.52;1.92;;;4.10;99.90;;;;;;5019875;28;20059;-77
2022/01/20 02:59:34;;;;;;;8.40;1.08;;;4.10;99.90;;;;;;5036609;28;20388;-75
2022/01/20 03:02:01;;;;;;;9.05;1.00;;;4.10;99.90;;;;;;5036249;28;20037;-75
2022/01/20 03:04:27;;;;;;;9.27;1.30;;;4.00;99.90;;;;;;5030967;28;20059;-75
2022/01/20 03:06:53;;;;;;;9.05;1.10;;;4.00;99.90;;;;;;5038794;28;20052;-75
2022/01/20 03:09:19;;;;;;;10.75;1.20;;;3.90;99.90;;;;;;5039022;28;20078;-74
2022/01/20 03:11:45;;;;;;;9.68;1.40;;;4.00;99.90;;;;;;5056259;28;20137;-78
2022/01/20 03:14:11;;;;;;;9.52;1.23;;;3.90;99.90;;;;;;5056082;28;20071;-74
2022/01/20 03:16:37;;;;;;;8.85;1.52;;;3.90;99.90;;;;;;5056296;28;20391;-75
2022/01/20 03:19:03;;;;;;;7.60;1.20;;;3.80;99.90;;;;;;5055854;28;20402;-75
2022/01/20 03:21:28;;;;;;;13.63;1.88;;;3.80;99.90;;;;;;5038650;28;20102;-75
2022/01/20 03:23:54;;;;;;;10.07;1.50;;;3.70;99.90;;;;;;5055359;28;20040;-75
2022/01/20 03:26:20;;;;;;;10.95;1.52;;;3.70;99.90;;;;;;5039331;28;20044;-75
2022/01/20 03:28:45;;;;;;;19.60;2.60;;;3.70;99.90;;;;;;5056306;28;20130;-75
2022/01/20 03:31:11;;;;;;;24.80;3.33;;;3.70;99.90;;;;;;5052114;28;20124;-75
2022/01/20 03:33:37;;;;;;;16.42;2.33;;;3.70;99.90;;;;;;5045812;28;20368;-75
2022/01/20 03:36:02;;;;;;;17.85;2.45;;;3.70;99.90;;;;;;5055560;28;20040;-73
2022/01/20 03:38:28;;;;;;;11.32;2.00;;;3.70;99.90;;;;;;5055243;28;20425;-75
2022/01/20 03:40:54;;;;;;;20.83;2.75;;;3.70;99.90;;;;;;5039085;28;20036;-75
2022/01/20 03:43:19;;;;;;;21.55;2.95;;;3.70;99.90;;;;;;5056112;28;20072;-75
2022/01/20 03:45:50;;;;;;;26.70;2.90;;;3.60;99.90;;;;;;5038819;28;20062;-75
2022/01/20 03:48:16;;;;;;;18.80;2.97;;;3.60;99.90;;;;;;5056944;28;20047;-75
2022/01/20 03:51:00;;;;;;;21.90;3.30;;;3.70;99.90;;;;;;5059370;28;20036;-75
2022/01/20 03:53:27;;;;;;;18.17;2.72;;;3.70;99.90;;;;;;5058918;28;20047;-78
2022/01/20 03:55:55;;;;;;;21.17;2.78;;;3.70;99.90;;;;;;5059776;28;20127;-76
2022/01/20 03:58:21;;;;;;;23.02;3.70;;;3.60;99.90;;;;;;5059510;28;20131;-75
2022/01/20 04:00:46;;;;;;;13.90;2.55;;;3.70;99.90;;;;;;5059520;28;20127;-75
2022/01/20 04:03:14;;;;;;;21.83;3.45;;;3.60;99.90;;;;;;5042489;28;20040;-75
2022/01/20 04:05:49;;;;;;;24.17;3.13;;;3.60;99.90;;;;;;5041990;28;20479;-76
2022/01/20 04:08:15;;;;;;;20.98;3.70;;;3.60;99.90;;;;;;5042905;28;20135;-74
2022/01/20 04:10:41;;;;;;;23.50;3.38;;;3.60;99.90;;;;;;5059742;28;20132;-74
2022/01/20 04:13:09;;;;;;;23.23;2.63;;;3.60;99.90;;;;;;5059108;28;20045;-74
2022/01/20 04:15:38;;;;;;;22.55;3.30;;;3.60;99.90;;;;;;5059117;28;20051;-74
2022/01/20 04:18:06;;;;;;;23.10;3.60;;;3.60;99.90;;;;;;5058868;28;20036;-75
2022/01/20 04:20:32;;;;;;;19.83;3.28;;;3.60;99.90;;;;;;5059225;28;20127;-74
2022/01/20 04:22:58;;;;;;;23.38;3.55;;;3.60;99.90;;;;;;5059036;28;20127;-77
2022/01/20 04:25:24;;;;;;;21.98;3.13;;;3.50;99.90;;;;;;5057836;28;20393;-75
2022/01/20 04:27:49;;;;;;;23.15;3.53;;;3.50;99.90;;;;;;5041292;28;20040;-75
2022/01/20 04:30:15;;;;;;;20.52;2.83;;;3.50;99.90;;;;;;5059016;28;20044;-75
2022/01/20 04:32:40;;;;;;;20.30;3.70;;;3.50;99.90;;;;;;5058524;28;20447;-75
2022/01/20 04:35:06;;;;;;;26.52;3.80;;;3.50;99.90;;;;;;5058870;28;20114;-74
2022/01/20 04:37:32;;;;;;;30.98;3.53;;;3.60;99.90;;;;;;5058802;28;20041;-78
2022/01/20 04:40:00;;;;;;;20.10;3.40;;;3.50;99.90;;;;;;5058789;28;20043;-74
2022/01/20 04:42:28;;;;;;;19.23;3.33;;;3.60;99.90;;;;;;5058707;28;20115;-74
2022/01/20 04:44:59;;;;;;;14.25;2.42;;;3.60;99.90;;;;;;5058418;28;20055;-77
2022/01/20 04:47:46;;;;;;;19.90;3.15;;;3.50;99.90;;;;;;5058222;28;20044;-75
2022/01/20 04:58:24;;;;;;;19.63;2.92;;;3.40;99.90;;;;;;5038492;28;20187;-76
2022/01/20 05:00:50;;;;;;;21.45;3.20;;;3.40;99.90;;;;;;5038332;28;20128;-75
2022/01/20 05:03:16;;;;;;;14.93;2.85;;;3.40;99.90;;;;;;5022144;28;20049;-75
2022/01/20 05:05:41;;;;;;;15.82;2.65;;;3.30;99.90;;;;;;5038080;28;20390;-77
2022/01/20 05:08:07;;;;;;;19.65;2.97;;;3.30;99.90;;;;;;5021544;28;20084;-75
2022/01/20 05:10:34;;;;;;;16.42;2.75;;;3.30;99.90;;;;;;5022409;28;20048;-74
2022/01/20 05:13:37;;;;;;;19.65;3.13;;;3.30;99.90;;;;;;5038439;28;20040;-75
2022/01/20 05:15:53;;;;;;;15.88;2.72;;;3.20;99.90;;;;;;5033937;28;20055;-75
2022/01/20 05:18:18;;;;;;;17.23;2.63;;;3.20;99.90;;;;;;5038029;28;20135;-75
2022/01/20 05:20:44;;;;;;;17.13;2.53;;;3.10;99.90;;;;;;5055501;28;20036;-74
2022/01/20 05:23:10;;;;;;;18.38;3.65;;;3.10;99.90;;;;;;5058112;28;20040;-73
2022/01/20 05:25:35;;;;;;;22.63;2.95;;;3.10;99.90;;;;;;5041094;28;20445;-76
2022/01/20 05:28:01;;;;;;;18.23;2.47;;;3.10;99.90;;;;;;5058393;28;20036;-73
2022/01/20 05:30:26;;;;;;;17.98;2.70;;;3.10;99.90;;;;;;5057821;28;20435;-73
2022/01/20 05:32:55;;;;;;;20.60;3.10;;;3.10;99.90;;;;;;5057877;28;20040;-73
2022/01/20 05:35:21;;;;;;;17.10;2.80;;;3.10;99.90;;;;;;5057400;28;20459;-73
2022/01/20 05:37:46;;;;;;;24.05;3.22;;;3.10;99.90;;;;;;5057979;28;20037;-73
2022/01/20 05:40:12;;;;;;;19.42;2.70;;;3.10;99.90;;;;;;5058140;28;20032;-74
2022/01/20 05:42:39;;;;;;;20.15;3.13;;;3.10;99.90;;;;;;5057961;28;20032;-73
2022/01/20 05:45:07;;;;;;;15.20;2.65;;;3.10;99.90;;;;;;5040577;28;20086;-74
2022/01/20 05:47:35;;;;;;;22.02;3.75;;;3.10;99.90;;;;;;5040870;28;20048;-73
2022/01/20 05:50:01;;;;;;;24.38;3.10;;;3.10;99.90;;;;;;5039942;28;20040;-76
2022/01/20 05:52:26;;;;;;;19.13;2.70;;;3.10;99.90;;;;;;5041146;28;20086;-73
2022/01/20 05:54:52;;;;;;;21.63;2.55;;;3.00;99.90;;;;;;5057542;28;20044;-74
2022/01/20 05:57:18;;;;;;;21.67;3.00;;;3.00;99.90;;;;;;5057255;28;20044;-73
2022/01/20 05:59:43;;;;;;;17.88;3.10;;;3.10;99.90;;;;;;5057116;28;20033;-75
2022/01/20 06:02:14;;;;;;;18.67;2.72;;;3.00;99.90;;;;;;5040474;28;20530;-74
2022/01/20 06:04:39;;;;;;;15.32;2.00;;;3.00;99.90;;;;;;5039590;28;20056;-73
2022/01/20 06:07:05;;;;;;;18.05;2.55;;;3.00;99.90;;;;;;5057777;28;20040;-73
2022/01/20 06:09:31;;;;;;;13.77;1.88;;;3.00;99.90;;;;;;5040947;28;20048;-75
2022/01/20 06:11:56;;;;;;;16.40;2.33;;;3.00;99.90;;;;;;5056383;28;20041;-72
2022/01/20 06:14:23;;;;;;;12.85;2.25;;;3.00;99.90;;;;;;5056357;28;20052;-75
2022/01/20 06:16:49;;;;;;;15.77;2.05;;;3.00;99.90;;;;;;5055525;28;20044;-74
2022/01/20 06:19:15;;;;;;;15.10;1.98;;;2.90;99.90;;;;;;5039712;28;20109;-76
2022/01/20 06:21:41;;;;;;;9.68;1.95;;;2.90;99.90;;;;;;5039791;28;20394;-73
2022/01/20 06:24:07;;;;;;;11.82;2.03;;;2.80;99.90;;;;;;5056932;28;20471;-73
2022/01/20 06:26:33;;;;;;;13.20;2.15;;;2.80;99.90;;;;;;5056960;28;20044;-74
2022/01/20 06:28:59;;;;;;;8.70;1.80;;;2.80;99.90;;;;;;5056713;28;20428;-74
2022/01/20 06:31:25;;;;;;;21.23;3.28;;;2.70;99.90;;;;;;5056598;28;20041;-74
2022/01/20 06:33:50;;;;;;;10.05;2.00;;;2.70;99.90;;;;;;5056272;28;20051;-74
2022/01/20 06:36:16;;;;;;;16.13;2.42;;;2.70;99.90;;;;;;5056619;28;20036;-74
2022/01/20 06:38:42;;;;;;;14.27;2.15;;;2.60;99.90;;;;;;5056327;28;20127;-76
2022/01/20 06:41:08;;;;;;;12.73;2.38;;;2.60;99.90;;;;;;5056599;28;20070;-73
2022/01/20 06:43:34;;;;;;;12.75;2.65;;;2.60;99.90;;;;;;5039421;28;20028;-73
2022/01/20 06:46:00;;;;;;;11.85;2.10;;;2.60;99.90;;;;;;5039299;28;20051;-73
2022/01/20 06:48:26;;;;;;;14.48;2.38;;;2.60;99.90;;;;;;5039445;28;20044;-73
2022/01/20 06:50:51;;;;;;;14.10;2.20;;;2.60;99.90;;;;;;5056213;28;20095;-73
2022/01/20 06:53:18;;;;;;;14.93;2.15;;;2.60;99.90;;;;;;5056330;28;20032;-73
2022/01/20 06:55:43;;;;;;;19.95;2.45;;;2.50;99.90;;;;;;5039840;28;20040;-73
2022/01/20 06:58:09;;;;;;;11.50;1.80;;;2.50;99.90;;;;;;5039601;28;20047;-73
2022/01/20 07:00:35;;;;;;;9.15;1.90;;;2.40;99.90;;;;;;5056027;28;20036;-73
2022/01/20 07:03:00;;;;;;;15.25;2.60;;;2.40;99.90;;;;;;5055792;28;20040;-73
2022/01/20 07:05:26;;;;;;;19.67;2.65;;;2.40;99.90;;;;;;5055396;28;20071;-73
2022/01/20 07:07:51;;;;;;;18.25;6.95;;;2.30;99.90;;;;;;5039976;28;20041;-73
2022/01/20 07:10:19;;;;;;;31.73;11.40;;;2.30;99.90;;;;;;5039340;28;20036;-74
2022/01/20 07:12:45;;;;;;;49.78;18.60;;;2.30;99.90;;;;;;5055607;28;20040;-75
2022/01/20 07:15:12;;;;;;;29.40;9.13;;;2.20;99.90;;;;;;5055775;28;20047;-73
2022/01/20 07:17:38;;;;;;;29.85;8.75;;;2.20;99.90;;;;;;5055560;28;20048;-76
2022/01/20 07:20:04;;;;;;;35.20;13.25;;;2.20;99.90;;;;;;5055972;28;20404;-73
2022/01/20 07:22:30;;;;;;;24.60;5.95;;;2.20;99.90;;;;;;5038302;28;20147;-74
2022/01/20 07:24:56;;;;;;;30.13;5.88;;;2.20;99.90;;;;;;5055344;28;20453;-76
2022/01/20 07:27:22;;;;;;;26.73;13.48;;;2.10;99.90;;;;;;5055928;28;20045;-74
2022/01/20 07:29:47;;;;;;;16.45;6.30;;;2.20;99.90;;;;;;5055397;28;20044;-73
2022/01/20 07:32:13;;;;;;;21.23;3.13;;;2.20;99.90;;;;;;5038519;28;20487;-73
2022/01/20 07:34:39;;;;;;;19.08;2.80;;;2.30;99.90;;;;;;5055692;28;20544;-75
2022/01/20 07:37:05;;;;;;;17.65;2.35;;;2.30;99.90;;;;;;5052166;28;20041;-73
2022/01/20 07:39:31;;;;;;;17.27;2.53;;;2.40;99.90;;;;;;5036038;28;20044;-74
2022/01/20 07:41:57;;;;;;;18.90;2.90;;;2.40;99.90;;;;;;5035691;28;20040;-75
2022/01/20 07:44:22;;;;;;;19.77;3.00;;;2.40;99.90;;;;;;5040964;28;20036;-74
2022/01/20 07:46:48;;;;;;;18.13;2.58;;;2.40;99.90;;;;;;5078685;28;20058;-73
2022/01/20 07:49:15;;;;;;;14.05;2.63;;;2.40;99.90;;;;;;5035520;28;20045;-74
2022/01/20 07:51:41;;;;;;;15.48;2.28;;;2.40;99.90;;;;;;5036693;28;20039;-75
2022/01/20 07:54:07;;;;;;;14.32;2.50;;;2.40;99.90;;;;;;5039209;28;20040;-74
2022/01/20 07:56:32;;;;;;;14.50;2.30;;;2.40;99.90;;;;;;5038843;28;20040;-74
2022/01/20 07:58:58;;;;;;;20.38;3.28;;;2.40;99.90;;;;;;5055286;28;20099;-74
2022/01/20 08:01:24;;;;;;;19.58;2.75;;;2.50;99.90;;;;;;5050583;28;20065;-74
2022/01/20 08:03:52;;;;;;;19.23;2.63;;;2.50;99.90;;;;;;5051544;28;20059;-74
2022/01/20 08:06:22;;;;;;;15.60;2.45;;;2.50;99.90;;;;;;5019232;28;20080;-75
2022/01/20 08:08:50;;;;;;;21.50;3.28;;;2.50;99.90;;;;;;5035780;28;20055;-73
2022/01/20 08:11:17;;;;;;;11.25;2.25;;;2.50;99.90;;;;;;5030471;28;20042;-73
2022/01/20 08:13:43;;;;;;;21.17;2.92;;;2.50;99.90;;;;;;5038542;28;20098;-73
2022/01/20 08:16:08;;;;;;;18.30;3.15;;;2.50;99.90;;;;;;5055298;28;20531;-74
2022/01/20 08:18:34;;;;;;;23.20;3.28;;;2.50;99.90;;;;;;5055339;28;20032;-75
2022/01/20 08:20:59;;;;;;;20.85;2.88;;;2.50;99.90;;;;;;5055280;28;20044;-74
2022/01/20 08:23:25;;;;;;;16.63;2.53;;;2.50;99.90;;;;;;5055410;28;20041;-73
2022/01/20 08:25:51;;;;;;;19.85;2.92;;;2.50;99.90;;;;;;5054987;28;20387;-75
2022/01/20 08:28:20;;;;;;;20.73;2.63;;;2.50;99.90;;;;;;5054979;28;20059;-73
2022/01/20 08:30:46;;;;;;;23.65;3.00;;;2.50;99.90;;;;;;5051978;28;20056;-73
2022/01/20 08:33:12;;;;;;;21.80;2.88;;;2.50;99.90;;;;;;5035250;28;20037;-73
2022/01/20 08:35:39;;;;;;;13.65;2.42;;;2.50;99.90;;;;;;5038755;28;20083;-74
2022/01/20 08:38:06;;;;;;;13.60;2.90;;;2.50;99.90;;;;;;5041904;28;20059;-73
2022/01/20 08:40:34;;;;;;;19.40;2.30;;;2.50;99.90;;;;;;5058903;28;20048;-73
2022/01/20 08:42:59;;;;;;;14.57;2.70;;;2.60;99.90;;;;;;5058486;28;20090;-73
2022/01/20 08:45:29;;;;;;;18.75;2.70;;;2.60;99.90;;;;;;5058624;28;20033;-73
2022/01/20 08:47:56;;;;;;;23.85;3.20;;;2.60;99.90;;;;;;5058800;28;20130;-73
2022/01/20 08:50:24;;;;;;;19.17;2.92;;;2.60;99.90;;;;;;5041752;28;20044;-73
2022/01/20 08:52:51;;;;;;;19.73;2.78;;;2.70;99.90;;;;;;5058685;28;20045;-73
2022/01/20 08:55:17;;;;;;;19.48;3.15;;;2.70;99.90;;;;;;5058469;28;20048;-73
2022/01/20 08:57:43;;;;;;;19.48;3.50;;;2.80;99.90;;;;;;5058003;28;20047;-73
2022/01/20 09:00:11;;;;;;;21.27;3.33;;;2.90;99.90;;;;;;5058267;28;20124;-74
2022/01/20 09:02:36;;;;;;;19.52;2.75;;;3.00;99.90;;;;;;5058557;28;20036;-73
2022/01/20 09:05:04;;;;;;;20.30;3.20;;;3.00;99.90;;;;;;5041348;28;20049;-73
2022/01/20 09:07:30;;;;;;;21.77;3.10;;;3.10;99.90;;;;;;5058473;28;20048;-72
2022/01/20 09:09:59;;;;;;;19.85;2.90;;;3.10;99.90;;;;;;5041510;28;20082;-73
2022/01/20 09:17:50;;;;;;;18.13;3.65;;;3.20;99.90;;;;;;5056962;28;20181;-73
2022/01/20 09:20:16;;;;;;;18.88;3.22;;;3.20;99.90;;;;;;5058028;28;20127;-73
2022/01/20 09:22:42;;;;;;;14.57;2.08;;;3.20;99.90;;;;;;5057620;28;20045;-73
2022/01/20 09:25:08;;;;;;;17.48;2.72;;;3.10;99.90;;;;;;5058448;28;20383;-73
2022/01/20 09:27:34;;;;;;;18.63;2.78;;;3.10;99.90;;;;;;5056177;28;20098;-73
2022/01/20 09:30:02;;;;;;;14.20;2.55;;;3.00;99.90;;;;;;5052271;28;20036;-73
2022/01/20 09:32:30;;;;;;;12.48;2.60;;;3.00;99.90;;;;;;5037976;28;20139;-75
2022/01/20 09:34:56;;;;;;;13.90;2.45;;;2.90;99.90;;;;;;5037695;28;20049;-73
2022/01/20 09:37:25;;;;;;;11.93;2.28;;;2.80;99.90;;;;;;5037429;28;20037;-74
2022/01/20 09:39:51;;;;;;;8.13;1.90;;;2.80;99.90;;;;;;5037881;28;20135;-74
2022/01/20 09:42:17;;;;;;;19.02;2.10;;;2.80;99.90;;;;;;5037549;28;20064;-73
2022/01/20 09:44:47;;;;;;;15.00;2.20;;;2.80;99.90;;;;;;5037578;28;20387;-73
2022/01/20 09:47:15;;;;;;;;;;;2.80;99.90;;;;;;5036944;28;20049;-73
2022/01/20 09:49:41;;;;;;;16.80;2.40;;;2.80;99.90;;;;;;5023138;28;19920;-72
2022/01/20 09:52:07;;;;;;;19.70;3.72;;;2.80;99.90;;;;;;5040299;28;20106;-75
2022/01/20 09:54:33;;;;;;;15.90;2.20;;;2.90;99.90;;;;;;5056804;28;20045;-73
2022/01/20 09:57:00;;;;;;;12.95;2.30;;;2.90;99.90;;;;;;5057554;28;20041;-73
2022/01/20 09:59:25;;;;;;;15.93;2.00;;;3.10;99.90;;;;;;5056999;28;20044;-76
2022/01/20 10:01:57;;;;;;;13.15;2.30;;;3.20;99.90;;;;;;5057088;28;20123;-74
2022/01/20 10:04:26;;;;;;;12.07;2.13;;;3.20;99.90;;;;;;5056814;28;20052;-75
2022/01/20 10:06:56;;;;;;;18.25;3.97;;;3.20;99.90;;;;;;5057866;28;20040;-73
2022/01/20 10:09:39;;;;;;;20.52;2.85;;;3.20;99.90;;;;;;5057257;28;20409;-73
2022/01/20 10:12:06;;;;;;;11.52;1.73;;;3.10;99.90;;;;;;5040297;28;20095;-73
2022/01/20 10:14:38;;;;;;;14.30;2.20;;;3.00;99.90;;;;;;5057084;28;20067;-73
2022/01/20 10:17:33;;;;;;;13.32;2.70;;;3.00;99.90;;;;;;5056591;28;20048;-73
2022/01/20 10:20:02;;;;;;;11.10;1.90;;;2.90;99.90;;;;;;5022891;28;20048;-73
2022/01/20 10:22:30;;;;;;;9.80;1.90;;;2.80;99.90;;;;;;5053246;28;20048;-72
2022/01/20 10:25:08;;;;;;;10.20;2.45;;;2.70;99.90;;;;;;5030707;28;20043;-73
2022/01/20 10:27:51;;;;;;;14.15;2.30;;;2.70;99.90;;;;;;5056723;28;20036;-74
2022/01/20 10:30:17;;;;;;;9.60;1.63;;;2.70;99.90;;;;;;5056860;28;20047;-74
2022/01/20 10:32:49;;;;;;;11.90;2.00;;;3.00;99.90;;;;;;5056699;28;20041;-73
2022/01/20 10:35:18;;;;;;;9.40;1.92;;;3.10;99.90;;;;;;5040001;28;20422;-75
2022/01/20 10:38:00;;;;;;;12.35;1.88;;;3.10;99.90;;;;;;5039626;28;20500;-75
2022/01/20 10:40:27;;;;;;;10.82;1.73;;;3.10;99.90;;;;;;5057119;28;20120;-73
2022/01/20 10:42:53;;;;;;;11.13;1.58;;;3.00;99.90;;;;;;5056879;28;20051;-73
2022/01/20 10:45:22;;;;;;;12.57;2.00;;;2.90;99.90;;;;;;5056259;28;20123;-75
2022/01/20 10:47:53;;;;;;;22.55;4.72;;;2.80;99.90;;;;;;5056449;28;20036;-73
2022/01/20 10:50:24;;;;;;;16.27;3.10;;;2.80;99.90;;;;;;5052205;28;20063;-74
2022/01/20 10:52:52;;;;;;;15.57;2.83;;;2.80;99.90;;;;;;5036296;28;20045;-72
2022/01/20 10:55:32;;;;;;;9.43;1.50;;;2.70;99.90;;;;;;5036360;28;20485;-72
2022/01/20 10:58:23;;;;;;;8.95;1.52;;;2.70;99.90;;;;;;5035815;28;20047;-74
2022/01/20 11:00:51;;;;;;;12.57;1.60;;;2.70;99.90;;;;;;5051949;28;20032;-73
2022/01/20 11:03:18;;;;;;;10.23;1.75;;;2.70;99.90;;;;;;5035908;28;20380;-74
2022/01/20 11:05:50;;;;;;;12.95;2.33;;;2.70;99.90;;;;;;5036379;28;20068;-73
2022/01/20 11:08:18;;;;;;;13.90;2.10;;;2.70;99.90;;;;;;5019635;28;20463;-73
2022/01/20 11:10:45;;;;;;;9.48;1.77;;;2.90;99.90;;;;;;5019606;28;20095;-73
2022/01/20 11:13:13;;;;;;;16.70;1.83;;;3.00;99.90;;;;;;5019190;28;20051;-73
2022/01/20 11:15:40;;;;;;;13.63;2.25;;;3.00;99.90;;;;;;5036629;28;20057;-73
2022/01/20 11:18:08;;;;;;;13.38;1.85;;;3.10;99.90;;;;;;5021430;28;20047;-74
2022/01/20 11:20:49;;;;;;;9.15;1.70;;;3.10;99.90;;;;;;5039373;28;20037;-73
2022/01/20 11:23:15;;;;;;;13.93;2.03;;;3.30;99.90;;;;;;5039175;28;20040;-73
2022/01/20 11:25:43;;;;;;;9.77;2.25;;;3.50;99.90;;;;;;5055264;28;20395;-72
2022/01/20 11:28:18;;;;;;;10.95;1.85;;;3.70;99.90;;;;;;5040002;28;20048;-73
2022/01/20 11:31:13;;;;;;;14.88;2.40;;;3.80;99.90;;;;;;5055744;28;20475;-72
2022/01/20 11:33:41;;;;;;;15.77;2.15;;;4.30;99.90;;;;;;5034470;28;20399;-73
2022/01/20 11:36:29;;;;;;;10.18;1.90;;;4.60;99.90;;;;;;5055452;28;20127;-73
2022/01/20 11:39:04;;;;;;;15.63;2.13;;;5.00;99.90;;;;;;5055877;28;20055;-75
2022/01/20 11:41:36;;;;;;;17.05;2.45;;;5.40;99.90;;;;;;5054844;28;20044;-73
2022/01/20 11:44:19;;;;;;;20.02;2.40;;;5.60;99.90;;;;;;5027790;28;20486;-72
2022/01/20 11:46:49;;;;;;;16.10;3.35;;;5.70;99.90;;;;;;5055217;28;20047;-72
2022/01/20 11:49:18;;;;;;;17.67;4.18;;;5.70;99.90;;;;;;5055460;28;20047;-73
2022/01/20 11:51:58;;;;;;;21.38;5.15;;;5.80;99.90;;;;;;5055184;28;20033;-73
2022/01/20 11:54:31;;;;;;;26.10;7.57;;;5.70;99.90;;;;;;5055768;28;20124;-73
2022/01/20 11:57:09;;;;;;;21.13;6.90;;;5.80;99.90;;;;;;5055135;28;20044;-72
2022/01/20 11:59:43;;;;;;;20.77;4.80;;;6.00;99.90;;;;;;5055400;28;20131;-73
2022/01/20 12:02:23;;;;;;;16.20;2.63;;;6.30;99.90;;;;;;5055524;28;20087;-73
2022/01/20 12:04:51;;;;;;;;;;;6.60;99.90;;;;;;5050747;28;20044;-86
2022/01/20 12:07:29;;;;;;;17.67;2.63;;;6.70;99.90;;;;;;5018896;28;19916;-81
2022/01/20 12:10:05;;;;;;;14.57;2.67;;;6.50;99.90;;;;;;5037877;28;20040;-75
2022/01/20 12:12:31;;;;;;;11.57;1.92;;;6.50;99.90;;;;;;5039170;28;20403;-73
2022/01/20 12:15:15;;;;;;;13.88;2.53;;;6.70;99.90;;;;;;5039651;28;20084;-73
2022/01/20 12:17:49;;;;;;;16.63;2.80;;;6.40;99.90;;;;;;5039157;28;20052;-73
2022/01/20 12:20:15;;;;;;;16.17;2.83;;;5.90;99.90;;;;;;5038136;28;20119;-75
2022/01/20 12:22:43;;;;;;;13.85;2.88;;;5.60;99.90;;;;;;5023540;28;20391;-73
2022/01/20 12:25:15;;;;;;;10.75;2.63;;;5.20;99.90;;;;;;5039252;28;20032;-74
2022/01/20 12:27:42;;;;;;;12.07;2.10;;;4.90;99.90;;;;;;5022554;28;20048;-73
2022/01/20 12:30:20;;;;;;;12.15;2.53;;;5.00;99.90;;;;;;5038969;28;20094;-74
2022/01/20 12:33:00;;;;;;;16.92;2.67;;;5.30;99.90;;;;;;5027863;28;20119;-74
2022/01/20 12:35:38;;;;;;;14.52;2.47;;;5.60;99.90;;;;;;5057956;28;20052;-72
2022/01/20 12:38:23;;;;;;;13.65;2.33;;;5.70;99.90;;;;;;5058443;28;20482;-72
2022/01/20 12:41:00;;;;;;;14.68;2.28;;;5.90;99.90;;;;;;5058674;28;20036;-73
2022/01/20 12:43:40;;;;;;;11.68;2.15;;;6.20;99.90;;;;;;5042375;28;20047;-73
2022/01/20 12:46:08;;;;;;;27.15;3.70;;;6.30;99.90;;;;;;5058708;28;20040;-73
2022/01/20 12:48:34;;;;;;;17.38;2.58;;;6.30;99.90;;;;;;5058101;28;20142;-75
2022/01/20 12:51:05;;;;;;;15.52;2.40;;;6.00;99.90;;;;;;5041824;28;20047;-73
2022/01/20 12:53:40;;;;;;;14.77;2.53;;;6.00;99.90;;;;;;5058352;28;20386;-73
2022/01/20 12:56:12;;;;;;;19.15;3.22;;;6.10;99.90;;;;;;5058655;28;20087;-73
2022/01/20 12:58:46;;;;;;;15.93;2.65;;;6.30;99.90;;;;;;5058420;28;20538;-73
2022/01/20 13:01:13;;;;;;;16.88;3.00;;;6.50;99.90;;;;;;5057825;28;20079;-72
2022/01/20 13:03:41;;;;;;;15.20;2.50;;;6.50;99.90;;;;;;5057328;28;20036;-76
2022/01/20 13:06:11;;;;;;;14.45;2.10;;;6.40;99.90;;;;;;5057707;28;20517;-73
2022/01/20 13:08:41;;;;;;;14.85;2.75;;;6.10;99.90;;;;;;5037188;28;20532;-72
2022/01/20 13:11:12;;;;;;;16.08;2.47;;;5.90;99.90;;;;;;5037555;28;20543;-73
2022/01/20 13:13:38;;;;;;;11.20;2.58;;;6.00;99.90;;;;;;5037423;28;20055;-72
2022/01/20 13:16:15;;;;;;;18.85;2.75;;;6.20;99.90;;;;;;5037378;28;20127;-73
2022/01/20 13:18:51;;;;;;;14.13;2.83;;;6.30;99.90;;;;;;5045275;28;20041;-73
2022/01/20 13:21:18;;;;;;;14.90;2.47;;;6.10;99.90;;;;;;5020847;28;20127;-73
2022/01/20 13:23:56;;;;;;;16.05;2.20;;;6.00;99.90;;;;;;5037214;28;20045;-73
2022/01/20 13:26:23;;;;;;;23.13;2.70;;;6.00;99.90;;;;;;5037092;28;20052;-72
2022/01/20 13:29:06;;;;;;;20.52;2.40;;;6.00;99.90;;;;;;5037102;28;20048;-73
2022/01/20 13:31:32;;;;;;;14.38;2.45;;;5.90;99.90;;;;;;5038740;28;20127;-73
2022/01/20 13:34:06;;;;;;;16.63;2.38;;;5.70;99.90;;;;;;5052578;28;20640;-73
2022/01/20 13:36:48;;;;;;;16.60;3.92;;;5.60;99.90;;;;;;5020650;28;20048;-74
2022/01/20 13:39:26;;;;;;;19.58;4.07;;;5.40;99.90;;;;;;5036901;28;20079;-74
2022/01/20 13:42:45;;;;;;;74.07;18.20;;;5.10;99.90;;;;;;5046097;28;20119;-73
2022/01/20 13:45:14;;;;;;;23.58;5.55;;;4.80;99.90;;;;;;5054600;28;20102;-73
2022/01/20 13:47:53;;;;;;;24.40;6.50;;;4.90;99.90;;;;;;5055428;28;20036;-73
2022/01/20 13:50:40;;;;;;;13.20;2.55;;;4.90;99.90;;;;;;5054889;28;20098;-73
2022/01/20 13:53:26;;;;;;;16.25;2.85;;;4.90;99.90;;;;;;5039550;28;20048;-73